Time;durP1;ratioP1;P1;durP2;ratioP2;P2;SDS_P1;SDS_P2;PMS_P1;PMS_P2;Temp;Humidity;BMP_temperature;BMP_pressure;BME280_temperature;BME280_humidity;BME280_pressure;Samples;Min_cycle;Max_cycle;Signal;HPM_P1;HPM_P2
2023/05/26 00:00:18;;;;;;;11.63;7.57;;;13.30;74.30;;;;;;5034980;28;20152;-73
2023/05/26 00:02:45;;;;;;;13.57;7.50;;;13.30;74.50;;;;;;5034892;28;20026;-73
2023/05/26 00:05:12;;;;;;;10.50;7.35;;;13.20;74.40;;;;;;5034529;28;20026;-73
2023/05/26 00:07:40;;;;;;;13.02;7.10;;;13.20;74.50;;;;;;5034782;28;20027;-73
2023/05/26 00:10:07;;;;;;;10.85;7.10;;;13.20;74.60;;;;;;5034924;28;20091;-73
2023/05/26 00:12:33;;;;;;;13.85;7.47;;;13.30;74.40;;;;;;5034587;28;20033;-73
2023/05/26 00:14:58;;;;;;;9.65;6.82;;;13.20;74.20;;;;;;5034371;28;20439;-73
2023/05/26 00:17:24;;;;;;;13.27;6.43;;;13.20;74.30;;;;;;5034610;28;20117;-73
2023/05/26 00:19:52;;;;;;;10.50;6.90;;;13.20;74.40;;;;;;5034220;28;20032;-73
2023/05/26 00:22:18;;;;;;;10.60;7.53;;;13.10;74.40;;;;;;5034410;28;20024;-73
2023/05/26 00:24:44;;;;;;;11.60;6.95;;;13.10;74.50;;;;;;5034473;28;20029;-73
2023/05/26 00:27:11;;;;;;;13.57;7.15;;;13.10;74.60;;;;;;5034220;28;20073;-73
2023/05/26 00:29:37;;;;;;;11.57;7.45;;;13.10;75.40;;;;;;5034069;28;20033;-73
2023/05/26 00:32:03;;;;;;;12.27;7.10;;;13.10;75.50;;;;;;5034147;28;20029;-73
2023/05/26 00:34:28;;;;;;;12.02;7.35;;;13.10;75.60;;;;;;5033933;28;20036;-73
2023/05/26 00:36:54;;;;;;;13.52;7.63;;;13.10;74.80;;;;;;5034189;28;20025;-73
2023/05/26 00:39:19;;;;;;;12.80;6.95;;;13.10;75.20;;;;;;5034245;28;20117;-73
2023/05/26 00:41:45;;;;;;;12.40;7.65;;;13.10;75.20;;;;;;5034060;28;20049;-73
2023/05/26 00:44:11;;;;;;;12.23;7.80;;;13.10;75.20;;;;;;5033904;28;20095;-73
2023/05/26 00:46:36;;;;;;;13.23;7.13;;;13.00;75.60;;;;;;5034145;28;20027;-73
2023/05/26 00:49:02;;;;;;;11.05;7.47;;;13.10;75.40;;;;;;5033815;28;20103;-73
2023/05/26 00:51:28;;;;;;;9.98;6.40;;;13.10;75.80;;;;;;5034123;28;20486;-73
2023/05/26 00:53:54;;;;;;;13.95;7.07;;;13.10;75.50;;;;;;5033944;28;20037;-73
2023/05/26 00:56:20;;;;;;;8.35;6.72;;;13.20;75.30;;;;;;5033987;28;20028;-73
2023/05/26 00:58:46;;;;;;;10.75;6.30;;;13.20;75.20;;;;;;5033869;28;20116;-72
2023/05/26 01:01:12;;;;;;;7.40;6.07;;;13.30;75.10;;;;;;5033210;28;20021;-74
2023/05/26 01:03:38;;;;;;;10.98;6.78;;;13.30;74.90;;;;;;5033551;28;20034;-72
2023/05/26 01:06:05;;;;;;;9.38;6.55;;;13.40;74.80;;;;;;5033272;28;20033;-72
2023/05/26 01:08:32;;;;;;;11.40;6.50;;;13.40;74.40;;;;;;5035016;28;20021;-72
2023/05/26 01:11:03;;;;;;;9.23;6.45;;;13.40;74.10;;;;;;5033681;28;20056;-72
2023/05/26 01:13:35;;;;;;;11.02;7.25;;;13.40;74.10;;;;;;5033446;28;20133;-72
2023/05/26 01:16:06;;;;;;;9.95;6.53;;;13.40;74.10;;;;;;5033243;28;20018;-73
2023/05/26 01:18:40;;;;;;;9.15;6.85;;;13.40;73.90;;;;;;5033655;28;20026;-73
2023/05/26 01:21:13;;;;;;;9.93;7.18;;;13.40;73.80;;;;;;5033414;28;20017;-72
2023/05/26 01:24:16;;;;;;;10.98;6.85;;;13.40;74.10;;;;;;5033165;28;20136;-73
2023/05/26 01:27:03;;;;;;;7.47;6.50;;;13.30;74.10;;;;;;5033497;28;20052;-72
2023/05/26 01:29:32;;;;;;;12.35;6.88;;;13.30;74.20;;;;;;5033254;28;20358;-72
2023/05/26 01:32:09;;;;;;;10.02;6.53;;;13.20;74.30;;;;;;5034345;28;20414;-72
2023/05/26 01:34:35;;;;;;;8.63;6.10;;;13.20;74.60;;;;;;5034169;28;20429;-72
2023/05/26 01:37:00;;;;;;;9.10;6.88;;;13.20;74.60;;;;;;5034177;28;20044;-72
2023/05/26 01:39:26;;;;;;;8.90;6.45;;;13.20;74.80;;;;;;5034156;28;20079;-72
2023/05/26 01:42:25;;;;;;;9.55;6.25;;;13.20;74.80;;;;;;5034272;28;20079;-72
2023/05/26 01:44:56;;;;;;;13.05;7.38;;;13.20;74.60;;;;;;5033942;28;20616;-72
2023/05/26 01:47:24;;;;;;;12.02;6.47;;;13.20;74.60;;;;;;5034076;28;20029;-72
2023/05/26 01:49:51;;;;;;;8.57;5.95;;;13.10;74.50;;;;;;5033744;28;20095;-72
2023/05/26 01:52:18;;;;;;;11.18;6.53;;;13.10;74.70;;;;;;5033822;28;20092;-72
2023/05/26 01:54:57;;;;;;;10.07;6.60;;;13.10;74.80;;;;;;5032551;28;20176;-72
2023/05/26 01:57:25;;;;;;;10.88;6.40;;;13.10;74.80;;;;;;5033791;28;20152;-72
2023/05/26 01:59:52;;;;;;;11.02;7.10;;;13.00;74.70;;;;;;5033711;28;20108;-72
2023/05/26 02:02:17;;;;;;;10.25;6.25;;;13.00;74.90;;;;;;5033607;28;20029;-72
2023/05/26 02:04:43;;;;;;;9.90;6.10;;;12.90;75.10;;;;;;5033695;28;20074;-72
2023/05/26 02:07:08;;;;;;;8.70;6.40;;;12.90;75.30;;;;;;5033577;28;20501;-72
2023/05/26 02:09:35;;;;;;;10.35;6.25;;;13.00;75.10;;;;;;5033593;28;20506;-72
2023/05/26 02:12:00;;;;;;;9.30;6.45;;;13.00;75.10;;;;;;5033453;28;20028;-72
2023/05/26 02:14:26;;;;;;;13.13;7.60;;;13.00;75.10;;;;;;5032629;28;20030;-73
2023/05/26 02:16:52;;;;;;;11.25;6.50;;;13.00;75.00;;;;;;5032165;28;20470;-72
2023/05/26 02:19:18;;;;;;;9.30;6.53;;;12.90;75.10;;;;;;5033424;28;20056;-73
2023/05/26 02:21:43;;;;;;;10.00;6.75;;;12.90;75.20;;;;;;5033353;28;20053;-72
2023/05/26 02:24:09;;;;;;;8.85;6.22;;;12.80;75.10;;;;;;5033297;28;20025;-72
2023/05/26 02:26:35;;;;;;;8.98;6.30;;;12.80;75.20;;;;;;5033243;28;20451;-72
2023/05/26 02:29:01;;;;;;;7.03;6.18;;;12.70;75.30;;;;;;5033072;28;20111;-73
2023/05/26 02:31:27;;;;;;;10.32;6.32;;;12.70;75.50;;;;;;5033260;28;20100;-73
2023/05/26 02:33:52;;;;;;;13.05;6.60;;;12.60;76.40;;;;;;5031881;28;20120;-74
2023/05/26 02:36:18;;;;;;;9.98;6.68;;;12.60;75.80;;;;;;5033214;28;20037;-73
2023/05/26 02:38:43;;;;;;;9.23;6.57;;;12.60;75.70;;;;;;5033014;28;20037;-73
2023/05/26 02:41:09;;;;;;;8.70;6.60;;;12.50;75.80;;;;;;5033173;28;20109;-73
2023/05/26 02:43:35;;;;;;;8.85;6.57;;;12.50;75.90;;;;;;5033006;28;20029;-73
2023/05/26 02:46:00;;;;;;;8.90;6.50;;;12.50;75.90;;;;;;5032898;28;20382;-73
2023/05/26 02:48:26;;;;;;;10.35;6.60;;;12.40;75.90;;;;;;5032725;28;20049;-73
2023/05/26 02:50:54;;;;;;;9.43;6.90;;;12.30;75.90;;;;;;5033050;28;20028;-73
2023/05/26 02:53:21;;;;;;;11.63;6.40;;;12.30;75.90;;;;;;5032798;28;20026;-73
2023/05/26 02:55:47;;;;;;;11.18;6.72;;;12.20;75.90;;;;;;5032893;28;20401;-74
2023/05/26 02:58:12;;;;;;;6.93;5.63;;;12.20;76.10;;;;;;5032864;28;20029;-73
2023/05/26 03:00:38;;;;;;;8.40;6.03;;;12.20;76.20;;;;;;5032785;28;20025;-73
2023/05/26 03:03:03;;;;;;;7.90;6.47;;;12.20;76.10;;;;;;5032767;28;20037;-73
2023/05/26 03:05:29;;;;;;;12.07;7.35;;;12.10;76.20;;;;;;5032834;28;20037;-73
2023/05/26 03:07:55;;;;;;;8.35;6.75;;;12.10;76.20;;;;;;5031392;28;20386;-74
2023/05/26 03:10:21;;;;;;;9.07;6.60;;;12.00;76.40;;;;;;5032879;28;20494;-73
2023/05/26 03:12:47;;;;;;;9.88;6.85;;;12.00;76.50;;;;;;5032596;28;20068;-73
2023/05/26 03:15:12;;;;;;;10.00;6.93;;;12.10;76.70;;;;;;5032587;28;20037;-73
2023/05/26 03:17:38;;;;;;;10.85;6.90;;;12.00;76.40;;;;;;5032669;28;20029;-73
2023/05/26 03:20:04;;;;;;;11.70;6.68;;;12.00;76.10;;;;;;5032610;28;20379;-73
2023/05/26 03:22:30;;;;;;;12.45;7.50;;;11.90;76.30;;;;;;5032580;28;20078;-72
2023/05/26 03:24:55;;;;;;;8.48;6.80;;;11.90;76.50;;;;;;5034036;28;20100;-72
2023/05/26 03:27:23;;;;;;;12.95;7.28;;;11.90;76.30;;;;;;5036574;28;20029;-72
2023/05/26 03:29:49;;;;;;;9.30;7.25;;;11.90;76.20;;;;;;5036516;28;20018;-72
2023/05/26 03:32:15;;;;;;;10.57;6.93;;;11.80;75.50;;;;;;5036457;28;20029;-73
2023/05/26 03:34:40;;;;;;;13.15;7.88;;;11.60;75.60;;;;;;5036061;28;20033;-72
2023/05/26 03:37:06;;;;;;;11.65;6.80;;;11.50;76.10;;;;;;5036363;28;20036;-72
2023/05/26 03:39:32;;;;;;;9.45;6.65;;;11.50;76.70;;;;;;5036409;28;20024;-73
2023/05/26 03:41:58;;;;;;;11.63;7.75;;;11.50;76.80;;;;;;5036230;28;20045;-72
2023/05/26 03:44:24;;;;;;;14.20;7.18;;;11.50;76.80;;;;;;5036152;28;20029;-72
2023/05/26 03:46:50;;;;;;;9.38;6.70;;;11.50;76.90;;;;;;5036089;28;20022;-73
2023/05/26 03:49:15;;;;;;;12.68;7.45;;;11.50;76.90;;;;;;5036035;28;20528;-73
2023/05/26 03:51:41;;;;;;;9.90;7.00;;;11.50;77.10;;;;;;5036033;28;20033;-73
2023/05/26 03:54:06;;;;;;;11.57;7.50;;;11.50;77.40;;;;;;5035908;28;20474;-73
2023/05/26 03:56:32;;;;;;;9.73;7.38;;;11.50;77.30;;;;;;5035888;28;20064;-73
2023/05/26 03:58:58;;;;;;;13.02;7.75;;;11.50;77.20;;;;;;5034551;28;20087;-73
2023/05/26 04:01:25;;;;;;;11.98;8.13;;;11.50;77.20;;;;;;5035979;28;20100;-73
2023/05/26 04:03:50;;;;;;;13.25;8.02;;;11.50;77.10;;;;;;5035890;28;20024;-73
2023/05/26 04:06:16;;;;;;;11.40;7.95;;;11.50;77.20;;;;;;5035905;28;20033;-73
2023/05/26 04:08:42;;;;;;;10.10;7.50;;;11.50;77.40;;;;;;5034477;28;20036;-72
2023/05/26 04:11:07;;;;;;;10.52;7.50;;;11.50;77.30;;;;;;5035594;28;20025;-73
2023/05/26 04:13:38;;;;;;;13.60;7.88;;;11.50;77.40;;;;;;5035590;28;20497;-73
2023/05/26 04:16:04;;;;;;;11.43;7.40;;;11.60;77.20;;;;;;5035610;28;20071;-73
2023/05/26 04:18:29;;;;;;;8.35;6.90;;;11.60;77.10;;;;;;5035536;28;20029;-73
2023/05/26 04:20:55;;;;;;;10.73;7.13;;;11.60;77.00;;;;;;5035555;28;20064;-73
2023/05/26 04:23:20;;;;;;;9.93;7.47;;;11.70;76.90;;;;;;5035633;28;20067;-73
2023/05/26 04:25:46;;;;;;;10.30;7.03;;;11.80;76.80;;;;;;5035508;28;20021;-73
2023/05/26 04:28:13;;;;;;;14.35;7.60;;;11.80;76.60;;;;;;5035543;28;20037;-72
2023/05/26 04:30:40;;;;;;;9.68;7.57;;;11.90;76.40;;;;;;5035469;28;20091;-73
2023/05/26 04:33:07;;;;;;;12.90;7.28;;;11.90;76.00;;;;;;5035250;28;20021;-73
2023/05/26 04:35:35;;;;;;;11.82;7.10;;;11.90;75.80;;;;;;5035232;28;20030;-73
2023/05/26 04:38:04;;;;;;;9.23;6.65;;;12.00;76.00;;;;;;5034760;28;20033;-73
2023/05/26 04:40:34;;;;;;;13.88;7.78;;;12.00;76.00;;;;;;5036739;28;20074;-73
2023/05/26 04:43:00;;;;;;;12.07;8.65;;;12.10;75.80;;;;;;5035197;28;20041;-73
2023/05/26 04:45:26;;;;;;;12.50;8.07;;;12.20;75.70;;;;;;5035094;28;20026;-73
2023/05/26 04:47:54;;;;;;;11.85;6.70;;;12.20;75.70;;;;;;5034958;28;20609;-73
2023/05/26 04:50:23;;;;;;;11.38;7.03;;;12.20;75.70;;;;;;5035032;28;20029;-73
2023/05/26 04:52:49;;;;;;;10.23;7.30;;;12.30;75.40;;;;;;5034878;28;20061;-73
2023/05/26 04:55:15;;;;;;;9.95;7.05;;;12.40;75.10;;;;;;5034915;28;20056;-73
2023/05/26 04:57:41;;;;;;;12.32;7.47;;;12.40;74.60;;;;;;5034733;28;20021;-73
2023/05/26 05:00:09;;;;;;;9.73;6.93;;;12.40;74.40;;;;;;5034887;28;20032;-73
2023/05/26 05:02:36;;;;;;;15.73;7.63;;;12.50;74.50;;;;;;5034303;28;20104;-73
2023/05/26 05:05:02;;;;;;;9.88;7.38;;;12.50;74.60;;;;;;5034491;28;20028;-73
2023/05/26 05:07:27;;;;;;;10.02;7.35;;;12.60;74.40;;;;;;5034483;28;20049;-73
2023/05/26 05:09:53;;;;;;;10.75;7.50;;;12.70;74.20;;;;;;5034360;28;20497;-73
2023/05/26 05:12:19;;;;;;;12.15;7.22;;;12.80;73.90;;;;;;5034550;28;20105;-73
2023/05/26 05:14:45;;;;;;;10.80;7.38;;;12.90;73.60;;;;;;5034335;28;20046;-72
2023/05/26 05:17:10;;;;;;;8.10;6.78;;;13.00;73.40;;;;;;5034378;28;20028;-72
2023/05/26 05:19:36;;;;;;;9.48;6.65;;;13.00;73.20;;;;;;5034286;28;20467;-73
2023/05/26 05:22:01;;;;;;;10.48;7.00;;;13.10;73.00;;;;;;5033954;28;20459;-73
2023/05/26 05:24:27;;;;;;;14.43;8.07;;;13.20;72.60;;;;;;5032957;28;20108;-72
2023/05/26 05:26:52;;;;;;;13.85;8.07;;;13.30;72.40;;;;;;5034008;28;20091;-72
2023/05/26 05:29:18;;;;;;;14.95;8.15;;;13.40;72.20;;;;;;5033734;28;20351;-73
2023/05/26 05:31:43;;;;;;;10.88;7.35;;;13.40;72.00;;;;;;5033349;28;20049;-73
2023/05/26 05:34:09;;;;;;;11.80;6.93;;;13.50;71.90;;;;;;5033817;28;20108;-73
2023/05/26 05:36:34;;;;;;;11.07;7.20;;;13.60;71.50;;;;;;5033536;28;20069;-73
2023/05/26 05:39:00;;;;;;;11.27;7.50;;;13.70;71.20;;;;;;5033915;28;20025;-73
2023/05/26 05:41:26;;;;;;;14.98;7.60;;;13.90;70.80;;;;;;5033878;28;20025;-72
2023/05/26 05:43:56;;;;;;;13.68;7.32;;;14.00;70.40;;;;;;5033785;28;20021;-72
2023/05/26 05:46:23;;;;;;;13.70;9.13;;;14.10;69.80;;;;;;5033885;28;20029;-73
2023/05/26 05:48:48;;;;;;;13.32;8.73;;;14.20;69.00;;;;;;5033516;28;20049;-73
2023/05/26 05:51:14;;;;;;;11.40;8.05;;;14.30;68.50;;;;;;5033555;28;20029;-73
2023/05/26 05:53:39;;;;;;;13.88;7.85;;;14.40;67.90;;;;;;5033578;28;20120;-74
2023/05/26 05:56:06;;;;;;;14.80;7.75;;;14.50;67.50;;;;;;5033734;28;20128;-74
2023/05/26 05:58:32;;;;;;;14.27;7.57;;;14.50;67.10;;;;;;5033739;28;20049;-73
2023/05/26 06:00:57;;;;;;;13.80;8.82;;;14.60;66.90;;;;;;5032271;28;20095;-74
2023/05/26 06:03:23;;;;;;;9.63;7.65;;;14.60;66.40;;;;;;5033957;28;20029;-74
2023/05/26 06:05:48;;;;;;;16.17;9.15;;;14.70;66.40;;;;;;5033523;28;20033;-74
2023/05/26 06:08:14;;;;;;;14.50;8.77;;;14.70;66.50;;;;;;5033400;28;20112;-73
2023/05/26 06:10:39;;;;;;;15.98;8.60;;;14.50;67.30;;;;;;5033342;28;20091;-74
2023/05/26 06:13:05;;;;;;;17.13;9.50;;;14.40;68.00;;;;;;5033158;28;20048;-74
2023/05/26 06:15:30;;;;;;;14.00;8.27;;;14.40;68.60;;;;;;5033398;28;20377;-74
2023/05/26 06:17:56;;;;;;;10.60;7.57;;;14.40;68.80;;;;;;5033280;28;20412;-74
2023/05/26 06:20:22;;;;;;;18.27;9.48;;;14.60;68.30;;;;;;5032897;28;20028;-74
2023/05/26 06:22:47;;;;;;;15.40;9.30;;;14.70;67.30;;;;;;5033078;28;20403;-74
2023/05/26 06:25:13;;;;;;;17.40;10.48;;;14.80;66.80;;;;;;5033183;28;20040;-74
2023/05/26 06:27:39;;;;;;;11.48;8.43;;;14.80;65.40;;;;;;5032975;28;20022;-73
2023/05/26 06:30:07;;;;;;;17.05;8.52;;;14.90;64.70;;;;;;5032769;28;20073;-74
2023/05/26 06:32:33;;;;;;;13.50;9.23;;;15.00;63.80;;;;;;5032809;28;20014;-74
2023/05/26 06:34:58;;;;;;;11.93;8.02;;;15.00;64.10;;;;;;5033021;28;20120;-74
2023/05/26 06:37:24;;;;;;;14.63;7.97;;;15.00;64.00;;;;;;5032990;28;20025;-74
2023/05/26 06:39:49;;;;;;;13.55;8.50;;;15.20;65.10;;;;;;5031653;28;20521;-74
2023/05/26 06:42:15;;;;;;;16.75;9.02;;;15.40;64.00;;;;;;5032693;28;20025;-73
2023/05/26 06:44:40;;;;;;;12.82;7.68;;;15.50;63.30;;;;;;5033031;28;20025;-74
2023/05/26 06:47:07;;;;;;;15.52;9.45;;;15.50;62.80;;;;;;5032666;28;20025;-73
2023/05/26 06:49:32;;;;;;;12.68;8.50;;;15.40;62.00;;;;;;5032746;28;20106;-73
2023/05/26 06:51:58;;;;;;;14.77;9.32;;;15.30;62.30;;;;;;5032653;28;20029;-74
2023/05/26 06:54:23;;;;;;;11.10;7.50;;;15.40;62.20;;;;;;5032766;28;20044;-74
2023/05/26 06:56:49;;;;;;;14.50;9.10;;;15.40;62.90;;;;;;5031493;28;20033;-75
2023/05/26 06:59:14;;;;;;;15.05;9.02;;;15.60;62.90;;;;;;5034158;28;20390;-75
2023/05/26 07:01:40;;;;;;;10.00;7.45;;;15.60;62.10;;;;;;5039227;28;20021;-73
2023/05/26 07:04:06;;;;;;;15.65;8.73;;;15.70;61.70;;;;;;5039229;28;20382;-73
2023/05/26 07:06:32;;;;;;;13.98;8.52;;;15.90;61.40;;;;;;5039691;28;20409;-72
2023/05/26 07:08:57;;;;;;;12.98;7.85;;;16.00;60.80;;;;;;5039194;28;20026;-73
2023/05/26 07:11:23;;;;;;;14.93;9.43;;;16.00;60.20;;;;;;5039058;28;20025;-74
2023/05/26 07:13:51;;;;;;;16.85;9.55;;;16.10;60.90;;;;;;5038750;28;20076;-74
2023/05/26 07:16:17;;;;;;;11.13;8.13;;;16.10;60.60;;;;;;5038736;28;20025;-74
2023/05/26 07:18:42;;;;;;;17.45;9.73;;;16.20;61.10;;;;;;5039134;28;20155;-80
2023/05/26 07:21:08;;;;;;;16.70;7.65;;;16.20;60.70;;;;;;5039151;28;20459;-76
2023/05/26 07:23:34;;;;;;;27.30;8.75;;;16.50;65.60;;;;;;5039159;28;20079;-79
2023/05/26 07:25:59;;;;;;;19.17;9.30;;;16.60;62.40;;;;;;5038641;28;20385;-75
2023/05/26 07:28:25;;;;;;;14.60;9.18;;;16.70;60.70;;;;;;5038601;28;20079;-77
2023/05/26 07:30:50;;;;;;;15.35;9.23;;;17.00;62.20;;;;;;5037627;28;20386;-80
2023/05/26 07:33:16;;;;;;;20.70;10.25;;;16.90;59.10;;;;;;5038649;28;20048;-78
2023/05/26 07:35:41;;;;;;;17.80;9.18;;;16.90;58.30;;;;;;5038685;28;20098;-77
2023/05/26 07:38:07;;;;;;;19.00;9.15;;;16.70;60.40;;;;;;5038761;28;20036;-77
2023/05/26 07:40:35;;;;;;;16.20;8.82;;;16.70;60.80;;;;;;5038594;28;20013;-77
2023/05/26 07:43:04;;;;;;;14.32;8.80;;;16.90;60.50;;;;;;5038826;28;20040;-78
2023/05/26 07:45:30;;;;;;;17.35;8.27;;;16.80;59.90;;;;;;5038378;28;20022;-74
2023/05/26 07:47:55;;;;;;;16.40;8.32;;;16.90;61.00;;;;;;5038471;28;20041;-75
2023/05/26 07:50:21;;;;;;;14.18;7.50;;;17.20;60.40;;;;;;5038505;28;20034;-74
2023/05/26 07:52:47;;;;;;;13.80;8.05;;;17.60;59.50;;;;;;5037120;28;20025;-77
2023/05/26 07:55:12;;;;;;;12.45;7.85;;;17.90;58.40;;;;;;5038609;28;20079;-78
2023/05/26 07:57:38;;;;;;;19.35;8.35;;;18.20;57.10;;;;;;5038645;28;20025;-77
2023/05/26 08:00:05;;;;;;;14.15;8.38;;;18.30;56.80;;;;;;5037236;28;20033;-76
2023/05/26 08:02:30;;;;;;;18.58;8.77;;;18.30;57.10;;;;;;5038580;28;20493;-77
2023/05/26 08:04:56;;;;;;;14.65;9.15;;;18.20;56.70;;;;;;5038389;28;20029;-77
2023/05/26 08:07:22;;;;;;;11.52;7.90;;;18.10;57.90;;;;;;5038621;28;20034;-77
2023/05/26 08:09:47;;;;;;;16.80;9.00;;;18.00;58.00;;;;;;5038433;28;20028;-77
2023/05/26 08:12:13;;;;;;;13.60;7.88;;;17.70;57.90;;;;;;5033035;28;20026;-77
2023/05/26 08:14:39;;;;;;;12.48;7.85;;;17.70;59.10;;;;;;5035256;28;20034;-77
2023/05/26 08:17:04;;;;;;;17.80;9.20;;;18.00;59.00;;;;;;5035564;28;20026;-77
2023/05/26 08:19:30;;;;;;;16.90;9.40;;;18.30;58.50;;;;;;5035312;28;20183;-77
2023/05/26 08:21:55;;;;;;;12.25;7.70;;;18.30;57.50;;;;;;5035293;28;20025;-78
2023/05/26 08:24:23;;;;;;;16.35;8.40;;;18.40;57.50;;;;;;5035214;28;20022;-77
2023/05/26 08:26:49;;;;;;;15.82;8.60;;;18.60;56.80;;;;;;5035108;28;20112;-77
2023/05/26 08:29:15;;;;;;;14.32;9.48;;;18.60;56.40;;;;;;5034917;28;20030;-77
2023/05/26 08:31:40;;;;;;;14.18;8.57;;;18.70;55.80;;;;;;5035100;28;20099;-77
2023/05/26 08:34:06;;;;;;;18.50;9.55;;;18.70;56.60;;;;;;5033669;28;20132;-77
2023/05/26 08:36:32;;;;;;;10.18;6.63;;;18.90;55.70;;;;;;5035025;28;20100;-76
2023/05/26 08:38:58;;;;;;;13.65;9.00;;;19.10;56.10;;;;;;5034628;28;20083;-77
2023/05/26 08:41:28;;;;;;;12.15;8.10;;;19.10;55.90;;;;;;5033395;28;20041;-76
2023/05/26 08:43:59;;;;;;;15.30;9.07;;;19.20;55.20;;;;;;5033415;28;20049;-77
2023/05/26 08:46:26;;;;;;;15.93;9.65;;;19.30;54.60;;;;;;5031716;28;20271;-78
2023/05/26 08:48:53;;;;;;;15.73;9.40;;;19.00;54.90;;;;;;5033384;28;20528;-77
2023/05/26 08:51:18;;;;;;;17.40;9.85;;;19.10;55.00;;;;;;5034514;28;20084;-76
2023/05/26 08:53:45;;;;;;;15.15;9.50;;;19.00;56.00;;;;;;5033188;28;20025;-77
2023/05/26 08:56:11;;;;;;;32.00;20.40;;;19.00;56.20;;;;;;5032882;28;20558;-77
2023/05/26 08:58:38;;;;;;;16.65;9.43;;;19.20;55.50;;;;;;5033317;28;20108;-77
2023/05/26 09:01:03;;;;;;;16.45;9.10;;;19.20;55.20;;;;;;5034488;28;20022;-78
2023/05/26 09:03:29;;;;;;;13.75;8.95;;;19.20;56.00;;;;;;5034563;28;20036;-78
2023/05/26 09:05:55;;;;;;;17.25;8.63;;;19.40;55.00;;;;;;5035435;28;20470;-78
2023/05/26 09:08:21;;;;;;;12.52;8.25;;;19.50;55.10;;;;;;5033026;28;20386;-77
2023/05/26 09:10:47;;;;;;;17.50;9.15;;;19.80;54.30;;;;;;5033617;28;20032;-77
2023/05/26 09:13:18;;;;;;;14.98;7.95;;;19.90;53.60;;;;;;5033078;28;20065;-77
2023/05/26 09:15:49;;;;;;;10.90;8.02;;;19.90;53.40;;;;;;5034487;28;20112;-77
2023/05/26 09:18:15;;;;;;;16.00;9.35;;;20.10;53.00;;;;;;5034369;28;20017;-77
2023/05/26 09:20:42;;;;;;;15.77;9.48;;;20.10;52.50;;;;;;5034255;28;20026;-77
2023/05/26 09:23:08;;;;;;;12.60;7.88;;;19.90;53.10;;;;;;5033749;28;20029;-78
2023/05/26 09:25:35;;;;;;;13.77;8.65;;;19.90;53.20;;;;;;5033929;28;20029;-77
2023/05/26 09:28:12;;;;;;;15.38;8.23;;;20.00;53.10;;;;;;5033889;28;20462;-77
2023/05/26 09:30:43;;;;;;;17.05;7.97;;;20.10;52.40;;;;;;5032941;28;20025;-78
2023/05/26 09:33:14;;;;;;;14.07;9.25;;;20.30;52.80;;;;;;5028965;28;20390;-76
2023/05/26 09:35:43;;;;;;;13.32;8.02;;;20.30;53.50;;;;;;5032708;28;20034;-76
2023/05/26 09:38:10;;;;;;;13.80;8.70;;;20.30;53.10;;;;;;5029922;28;20010;-78
2023/05/26 09:40:43;;;;;;;12.23;7.93;;;20.30;52.00;;;;;;5032434;28;20022;-77
2023/05/26 09:43:08;;;;;;;14.70;7.85;;;20.40;51.80;;;;;;5032405;28;20029;-76
2023/05/26 09:45:35;;;;;;;10.05;6.40;;;20.60;50.50;;;;;;5031165;28;20055;-77
2023/05/26 09:48:03;;;;;;;10.43;7.70;;;20.80;50.20;;;;;;5029747;28;20103;-78
2023/05/26 09:50:33;;;;;;;14.40;8.02;;;21.00;49.50;;;;;;5030832;28;20136;-77
2023/05/26 09:53:03;;;;;;;10.18;6.55;;;21.30;49.10;;;;;;5029947;28;20025;-76
2023/05/26 09:55:32;;;;;;;10.77;6.45;;;21.50;48.10;;;;;;5032477;28;20061;-76
2023/05/26 09:58:06;;;;;;;11.48;6.63;;;21.40;46.00;;;;;;5029321;28;20482;-77
2023/05/26 10:00:34;;;;;;;16.77;7.13;;;21.30;45.80;;;;;;5032007;28;20072;-75
2023/05/26 10:03:03;;;;;;;9.18;5.88;;;21.40;46.80;;;;;;5029391;28;20101;-77
2023/05/26 10:05:33;;;;;;;13.68;6.13;;;21.60;46.30;;;;;;5031938;28;20022;-77
2023/05/26 10:08:01;;;;;;;13.90;6.22;;;21.90;44.50;;;;;;5029331;28;20044;-77
2023/05/26 10:10:29;;;;;;;13.05;7.10;;;21.80;43.90;;;;;;5031758;28;20079;-76
2023/05/26 10:12:55;;;;;;;11.50;6.82;;;21.50;43.50;;;;;;5031957;28;20036;-77
2023/05/26 10:15:21;;;;;;;11.50;6.68;;;21.30;44.50;;;;;;5032932;28;20108;-76
2023/05/26 10:17:47;;;;;;;13.85;7.13;;;21.40;44.40;;;;;;5033274;28;20049;-73
2023/05/26 10:20:14;;;;;;;10.55;6.78;;;21.60;44.50;;;;;;5033049;28;20033;-73
2023/05/26 10:23:00;;;;;;;11.02;6.30;;;21.90;44.50;;;;;;5033315;28;20022;-73
2023/05/26 10:26:01;;;;;;;9.90;6.35;;;22.20;42.10;;;;;;5032976;28;20052;-73
2023/05/26 10:28:46;;;;;;;10.93;5.85;;;22.00;40.90;;;;;;5011085;28;20025;-73
2023/05/26 10:31:31;;;;;;;12.57;7.25;;;22.10;41.40;;;;;;5033029;28;20033;-72
2023/05/26 10:33:57;;;;;;;10.43;6.07;;;22.30;42.20;;;;;;5032456;28;20437;-75
2023/05/26 10:36:23;;;;;;;10.60;7.15;;;22.60;41.70;;;;;;5032798;28;20033;-75
2023/05/26 10:38:51;;;;;;;16.38;10.02;;;22.90;40.70;;;;;;5032791;28;20029;-75
2023/05/26 10:41:31;;;;;;;10.38;7.03;;;22.90;39.30;;;;;;5032661;28;20026;-75
2023/05/26 10:43:57;;;;;;;9.55;6.03;;;22.90;39.20;;;;;;5032760;28;20373;-75
2023/05/26 10:46:45;;;;;;;12.38;6.15;;;22.80;39.80;;;;;;5032577;28;20537;-75
2023/05/26 10:49:20;;;;;;;12.13;6.53;;;22.70;40.40;;;;;;5032351;28;20053;-74
2023/05/26 10:51:52;;;;;;;10.43;6.43;;;22.60;40.10;;;;;;5032614;28;20374;-74
2023/05/26 10:54:22;;;;;;;20.20;10.35;;;22.70;40.70;;;;;;5032085;28;20037;-73
2023/05/26 10:56:50;;;;;;;13.65;7.10;;;23.00;40.70;;;;;;5032250;28;20021;-73
2023/05/26 10:59:21;;;;;;;12.38;6.28;;;22.80;40.20;;;;;;5031055;28;20430;-75
2023/05/26 11:01:51;;;;;;;14.23;6.70;;;22.90;40.90;;;;;;5032538;28;20032;-74
2023/05/26 11:04:17;;;;;;;12.05;6.32;;;23.20;41.80;;;;;;5031973;28;20052;-73
2023/05/26 11:06:50;;;;;;;11.55;6.38;;;23.40;40.80;;;;;;5032218;28;20057;-75
2023/05/26 11:09:19;;;;;;;13.73;6.95;;;23.40;39.80;;;;;;5032293;28;20022;-72
2023/05/26 11:11:59;;;;;;;13.70;7.18;;;23.30;39.80;;;;;;5032132;28;20026;-73
2023/05/26 11:14:33;;;;;;;10.52;6.20;;;23.10;39.70;;;;;;5032335;28;20102;-73
2023/05/26 11:17:04;;;;;;;14.23;6.20;;;23.30;40.30;;;;;;5032652;28;20045;-72
2023/05/26 11:19:38;;;;;;;25.90;19.35;;;23.70;40.20;;;;;;5032237;28;20505;-71
2023/05/26 11:22:07;;;;;;;19.98;14.18;;;23.80;37.90;;;;;;5031883;28;20029;-72
2023/05/26 11:24:34;;;;;;;18.33;8.00;;;23.60;38.40;;;;;;5032098;28;20470;-72
2023/05/26 11:27:01;;;;;;;12.05;6.80;;;23.40;39.40;;;;;;5032518;28;20030;-72
2023/05/26 11:29:27;;;;;;;12.70;6.18;;;23.70;39.40;;;;;;5032460;28;20021;-73
2023/05/26 11:31:53;;;;;;;10.85;6.00;;;23.80;38.50;;;;;;5032132;28;20041;-72
2023/05/26 11:34:21;;;;;;;17.13;7.05;;;23.70;38.00;;;;;;5032074;28;20029;-71
2023/05/26 11:36:48;;;;;;;12.80;6.05;;;23.80;38.10;;;;;;5032298;28;20025;-71
2023/05/26 11:39:14;;;;;;;9.20;6.30;;;24.00;38.80;;;;;;5032363;28;20490;-72
2023/05/26 11:41:40;;;;;;;14.73;5.97;;;24.20;38.30;;;;;;5031071;28;20394;-73
2023/05/26 11:44:08;;;;;;;11.05;6.28;;;24.30;37.80;;;;;;5032183;28;20025;-73
2023/05/26 11:46:37;;;;;;;8.85;5.50;;;24.40;37.50;;;;;;5034633;28;20374;-76
2023/05/26 11:49:03;;;;;;;11.88;6.85;;;24.50;37.20;;;;;;5035534;28;20041;-72
2023/05/26 11:51:31;;;;;;;12.07;7.30;;;24.70;37.10;;;;;;5035837;28;20024;-72
2023/05/26 11:53:58;;;;;;;11.60;7.07;;;24.60;36.30;;;;;;5035938;28;20042;-72
2023/05/26 11:56:33;;;;;;;13.38;6.40;;;24.30;36.50;;;;;;5035935;28;20030;-72
2023/05/26 11:59:00;;;;;;;9.83;6.23;;;24.30;37.50;;;;;;5035027;28;20022;-72
2023/05/26 12:01:26;;;;;;;18.38;7.05;;;24.30;37.10;;;;;;5035602;28;20260;-72
2023/05/26 12:03:52;;;;;;;12.95;6.45;;;24.40;36.80;;;;;;5035741;28;20076;-72
2023/05/26 12:06:23;;;;;;;10.73;6.28;;;24.50;37.30;;;;;;5035325;28;20026;-73
2023/05/26 12:08:50;;;;;;;11.23;6.53;;;24.60;36.90;;;;;;5035740;28;20030;-75
2023/05/26 12:11:29;;;;;;;14.13;6.22;;;24.50;36.10;;;;;;5034219;28;20026;-74
2023/05/26 12:13:57;;;;;;;16.02;6.72;;;24.40;36.90;;;;;;5035517;28;20037;-75
2023/05/26 12:16:33;;;;;;;12.35;7.07;;;24.50;36.20;;;;;;5035683;28;20028;-73
2023/05/26 12:19:02;;;;;;;7.68;5.30;;;24.70;36.20;;;;;;5035550;28;20037;-73
2023/05/26 12:21:29;;;;;;;12.23;6.40;;;25.00;37.00;;;;;;5035506;28;20092;-73
2023/05/26 12:23:56;;;;;;;12.82;5.88;;;25.30;35.10;;;;;;5035404;28;20025;-73
2023/05/26 12:26:25;;;;;;;12.73;6.07;;;25.40;34.20;;;;;;5035232;28;20086;-73
2023/05/26 12:29:11;;;;;;;14.57;8.45;;;25.10;34.40;;;;;;5033853;28;20026;-72
2023/05/26 12:31:36;;;;;;;;;;;25.30;35.20;;;;;;5036022;28;20079;-72
2023/05/26 12:34:02;;;;;;;10.48;5.07;;;25.60;34.70;;;;;;5035174;28;19913;-72
2023/05/26 12:36:27;;;;;;;15.90;6.22;;;25.80;34.40;;;;;;5035258;28;20030;-72
2023/05/26 12:38:54;;;;;;;16.17;6.50;;;26.20;33.90;;;;;;5033758;28;20116;-72